Time;durP1;ratioP1;P1;durP2;ratioP2;P2;SDS_P1;SDS_P2;PMS_P1;PMS_P2;Temp;Humidity;BMP_temperature;BMP_pressure;BME280_temperature;BME280_humidity;BME280_pressure;Samples;Min_cycle;Max_cycle;Signal;HPM_P1;HPM_P2
2021/12/31 00:00:07;;;;;;;4.25;2.17;;;;;;;13.94;79.27;100195.91;340934;28;1819;-68
2021/12/31 00:00:19;;;;;;;2.63;2.22;;;;;;;13.93;79.18;100190.75;340952;28;1335;-68
2021/12/31 00:00:31;;;;;;;3.47;2.20;;;;;;;13.97;79.27;100198.41;341027;28;1050;-68
2021/12/31 00:00:45;;;;;;;3.97;2.20;;;;;;;14.02;78.94;100197.38;340931;28;1108;-68
2021/12/31 00:00:57;;;;;;;3.97;2.40;;;;;;;14.05;78.98;100199.88;340895;28;1544;-68
2021/12/31 00:01:10;;;;;;;4.28;2.45;;;;;;;14.07;78.86;100193.69;340906;28;1060;-68
2021/12/31 00:01:24;;;;;;;4.10;2.28;;;;;;;14.08;78.97;100194.53;338779;28;2898;-68
2021/12/31 00:01:37;;;;;;;3.50;2.25;;;;;;;14.12;78.75;100193.50;339734;28;4200;-68
2021/12/31 00:01:49;;;;;;;4.10;2.40;;;;;;;14.08;78.83;100200.59;342117;28;1196;-68
2021/12/31 00:02:01;;;;;;;3.90;2.38;;;;;;;14.05;78.74;100194.66;341002;28;4301;-68
2021/12/31 00:02:14;;;;;;;3.08;2.05;;;;;;;13.95;78.78;100195.00;339665;29;1051;-68
2021/12/31 00:02:26;;;;;;;2.65;2.08;;;;;;;13.91;79.07;100201.25;339337;28;2229;-68
2021/12/31 00:02:39;;;;;;;2.72;1.90;;;;;;;13.94;79.18;100193.31;340927;28;1669;-68
2021/12/31 00:02:52;;;;;;;3.20;2.20;;;;;;;13.93;79.13;100191.59;342262;28;1163;-68
2021/12/31 00:03:04;;;;;;;3.63;2.30;;;;;;;13.95;79.30;100194.16;341016;28;1876;-68
2021/12/31 00:03:16;;;;;;;3.78;2.40;;;;;;;13.97;79.26;100208.00;341071;28;1009;-68
2021/12/31 00:03:28;;;;;;;2.90;2.17;;;;;;;13.92;79.33;100195.13;340934;29;1195;-68
2021/12/31 00:03:40;;;;;;;2.45;2.05;;;;;;;13.94;79.29;100198.53;341130;28;1372;-68
2021/12/31 00:03:52;;;;;;;2.30;1.92;;;;;;;13.89;79.33;100200.44;340935;28;1202;-68
2021/12/31 00:04:04;;;;;;;2.38;1.92;;;;;;;13.93;79.22;100196.81;340932;28;1607;-68
2021/12/31 00:04:16;;;;;;;3.95;2.38;;;;;;;13.90;79.44;100194.31;340959;28;1309;-68
2021/12/31 00:04:28;;;;;;;5.63;2.50;;;;;;;13.92;79.33;100192.50;340948;28;1039;-68
2021/12/31 00:04:40;;;;;;;5.45;2.25;;;;;;;13.87;79.48;100197.03;341034;28;1314;-68
2021/12/31 00:04:53;;;;;;;3.67;2.10;;;;;;;13.90;79.19;100199.53;341108;28;1330;-68
2021/12/31 00:05:08;;;;;;;2.80;2.05;;;;;;;13.96;79.12;100199.31;339437;29;1137;-68
2021/12/31 00:05:20;;;;;;;2.70;2.00;;;;;;;13.91;79.37;100198.63;339410;29;1016;-68
2021/12/31 00:05:32;;;;;;;3.00;1.92;;;;;;;13.87;79.40;100191.81;339621;29;1301;-68
2021/12/31 00:05:44;;;;;;;3.25;2.00;;;;;;;13.90;79.48;100194.31;339575;29;1202;-68
2021/12/31 00:05:56;;;;;;;3.40;2.10;;;;;;;13.93;79.36;100195.97;339386;29;1333;-68
2021/12/31 00:06:08;;;;;;;4.05;2.05;;;;;;;13.94;79.25;100198.53;339640;29;880;-68
2021/12/31 00:06:20;;;;;;;6.30;2.30;;;;;;;13.98;79.05;100194.91;339833;29;2781;-68
2021/12/31 00:06:33;;;;;;;5.80;2.38;;;;;;;13.99;79.17;100199.19;340154;29;2003;-68
2021/12/31 00:06:45;;;;;;;4.90;2.25;;;;;;;13.98;79.24;100194.00;340712;28;1926;-68
2021/12/31 00:06:58;;;;;;;3.20;2.22;;;;;;;13.94;79.39;100193.31;341914;28;1635;-68
2021/12/31 00:07:10;;;;;;;3.17;2.10;;;;;;;13.93;79.29;100191.59;341927;28;1295;-68
2021/12/31 00:07:22;;;;;;;3.15;2.25;;;;;;;13.93;79.44;100199.44;342036;28;1353;-68
2021/12/31 00:07:34;;;;;;;3.28;2.20;;;;;;;13.93;79.32;100196.81;341994;28;1075;-68
2021/12/31 00:07:47;;;;;;;3.58;2.30;;;;;;;13.97;79.23;100193.16;341588;28;2717;-68
2021/12/31 00:07:59;;;;;;;3.38;2.03;;;;;;;13.92;79.08;100192.50;342776;28;1926;-68
2021/12/31 00:08:11;;;;;;;3.47;2.17;;;;;;;13.90;79.43;100191.69;342072;28;1184;-68
2021/12/31 00:08:23;;;;;;;3.58;2.05;;;;;;;13.90;79.57;100196.91;342093;28;1200;-68
2021/12/31 00:08:35;;;;;;;3.25;2.10;;;;;;;13.93;79.39;100194.19;341999;28;1079;-68
2021/12/31 00:08:47;;;;;;;3.17;2.10;;;;;;;13.94;79.47;100192.44;342118;28;1270;-68
2021/12/31 00:08:59;;;;;;;2.97;2.15;;;;;;;13.93;79.43;100191.59;341766;28;1338;-68
2021/12/31 00:09:11;;;;;;;3.65;2.15;;;;;;;13.92;79.41;100192.50;341112;28;1047;-68
2021/12/31 00:09:23;;;;;;;4.53;2.30;;;;;;;13.88;79.38;100193.50;340933;28;1172;-68
2021/12/31 00:09:36;;;;;;;4.88;2.40;;;;;;;13.90;79.59;100191.69;340987;28;1099;-68
2021/12/31 00:09:48;;;;;;;3.55;2.30;;;;;;;13.90;79.80;100191.69;340790;28;1160;-68
2021/12/31 00:10:01;;;;;;;3.17;2.22;;;;;;;13.89;79.53;100187.38;340977;28;1627;-68
2021/12/31 00:10:13;;;;;;;3.85;2.22;;;;;;;13.94;79.48;100188.06;340860;28;1172;-68
2021/12/31 00:10:25;;;;;;;5.50;2.65;;;;;;;13.95;79.51;100188.91;340577;28;1894;-68
2021/12/31 00:10:38;;;;;;;5.43;2.60;;;;;;;13.97;79.48;100195.78;340803;28;1122;-68
2021/12/31 00:10:55;;;;;;;3.17;2.10;;;;;;;13.99;79.25;100188.75;340883;28;1072;-68
2021/12/31 00:11:07;;;;;;;3.63;2.05;;;;;;;13.96;79.30;100191.47;341068;28;1006;-68
2021/12/31 00:11:19;;;;;;;3.85;2.20;;;;;;;13.97;79.14;100192.31;340965;28;1164;-68
2021/12/31 00:11:31;;;;;;;4.50;2.20;;;;;;;13.97;79.14;100193.16;340363;28;2524;-68
2021/12/31 00:11:43;;;;;;;3.95;2.13;;;;;;;13.94;79.04;100198.53;340047;28;2067;-68
2021/12/31 00:11:55;;;;;;;3.38;2.00;;;;;;;13.92;79.28;100187.28;340863;28;1036;-68
2021/12/31 00:12:08;;;;;;;3.00;2.00;;;;;;;13.93;79.37;100191.59;339668;29;1372;-68
2021/12/31 00:12:20;;;;;;;3.25;2.00;;;;;;;13.90;79.68;100196.06;339662;29;1054;-68
2021/12/31 00:12:33;;;;;;;3.88;2.00;;;;;;;13.86;79.50;100195.31;339746;29;1054;-68
2021/12/31 00:12:45;;;;;;;3.80;2.03;;;;;;;13.86;79.66;100192.72;339798;29;1297;-68
2021/12/31 00:12:59;;;;;;;3.72;2.08;;;;;;;13.90;79.73;100191.69;340016;29;1821;-68
2021/12/31 00:13:11;;;;;;;3.85;2.25;;;;;;;13.94;79.48;100193.31;341087;28;1042;-68
2021/12/31 00:13:23;;;;;;;3.97;2.50;;;;;;;13.96;79.59;100195.84;340899;29;1075;-68
2021/12/31 00:13:35;;;;;;;3.42;2.33;;;;;;;13.90;79.44;100191.69;341021;28;1047;-68
2021/12/31 00:13:47;;;;;;;3.25;2.13;;;;;;;13.92;79.51;100189.91;342142;28;1260;-68
2021/12/31 00:13:59;;;;;;;3.10;2.10;;;;;;;13.91;79.46;100193.41;342078;28;1824;-68
2021/12/31 00:14:11;;;;;;;4.70;2.25;;;;;;;13.92;79.54;100189.91;342030;28;1091;-68
2021/12/31 00:14:23;;;;;;;5.07;2.40;;;;;;;13.92;79.50;100189.91;340448;29;1076;-68
2021/12/31 00:14:36;;;;;;;4.00;2.30;;;;;;;13.91;79.45;100187.34;340645;29;1289;-68
2021/12/31 00:14:48;;;;;;;4.68;2.28;;;;;;;13.96;79.46;100196.72;340623;29;1044;-68
2021/12/31 00:15:01;;;;;;;5.72;2.47;;;;;;;13.89;79.37;100189.16;340854;29;1047;-68
2021/12/31 00:15:13;;;;;;;5.15;2.30;;;;;;;13.88;79.68;100188.28;340395;29;1047;-68
2021/12/31 00:15:25;;;;;;;3.83;2.13;;;;;;;13.86;79.93;100190.09;340744;29;1176;-68
2021/12/31 00:15:37;;;;;;;4.07;2.13;;;;;;;13.85;79.92;100190.19;340840;29;1103;-68
2021/12/31 00:15:49;;;;;;;3.50;2.25;;;;;;;13.91;79.63;100188.19;340734;29;1120;-68
2021/12/31 00:16:01;;;;;;;3.95;2.30;;;;;;;13.93;79.55;100193.34;340609;29;1108;-68
2021/12/31 00:16:14;;;;;;;4.75;2.40;;;;;;;13.90;79.82;100198.69;340688;29;1055;-68
2021/12/31 00:16:26;;;;;;;5.40;2.50;;;;;;;13.85;79.70;100187.56;340671;29;1305;-68
2021/12/31 00:16:38;;;;;;;3.95;2.35;;;;;;;13.84;79.81;100191.06;339542;28;2526;-68
2021/12/31 00:16:51;;;;;;;3.63;2.33;;;;;;;13.89;79.81;100189.16;340951;28;1823;-68
2021/12/31 00:17:04;;;;;;;3.22;2.35;;;;;;;13.85;79.79;100193.63;340651;28;1924;-68
2021/12/31 00:17:16;;;;;;;3.40;2.50;;;;;;;13.81;79.75;100197.28;341184;28;1057;-68
2021/12/31 00:17:28;;;;;;;3.88;2.42;;;;;;;13.83;79.87;100190.22;341012;28;1099;-68
2021/12/31 00:17:40;;;;;;;4.82;2.40;;;;;;;13.81;79.98;100192.06;340549;28;2104;-68
2021/12/31 00:17:52;;;;;;;5.80;2.40;;;;;;;13.86;79.94;100194.47;341983;28;1335;-68
2021/12/31 00:18:04;;;;;;;4.57;2.38;;;;;;;13.76;80.06;100193.97;340851;28;1603;-68
2021/12/31 00:18:16;;;;;;;5.03;2.30;;;;;;;13.84;79.80;100191.06;340864;29;1390;-68
2021/12/31 00:18:28;;;;;;;4.55;2.40;;;;;;;13.81;80.22;100192.06;340721;28;1855;-68
2021/12/31 00:18:41;;;;;;;4.63;2.53;;;;;;;13.84;79.98;100196.31;342150;28;1317;-68
2021/12/31 00:18:53;;;;;;;3.85;2.40;;;;;;;13.85;79.95;100193.63;342192;28;1104;-68
2021/12/31 00:19:05;;;;;;;3.30;2.25;;;;;;;13.84;80.00;100196.31;339711;29;2572;-68
2021/12/31 00:19:17;;;;;;;3.22;2.20;;;;;;;13.84;80.04;100197.16;339478;29;1157;-68
2021/12/31 00:19:32;;;;;;;3.53;2.30;;;;;;;13.77;80.20;100196.53;339841;29;1054;-68
2021/12/31 00:19:46;;;;;;;3.97;2.40;;;;;;;13.73;80.18;100196.72;339577;29;1049;-68
2021/12/31 00:20:05;;;;;;;3.83;2.10;;;;;;;13.72;80.25;100198.47;340159;29;1844;-68
2021/12/31 00:20:21;;;;;;;5.32;2.17;;;;;;;13.81;80.16;100197.28;341005;28;1048;-68
2021/12/31 00:20:34;;;;;;;6.28;2.80;;;;;;;13.85;80.14;100198.88;340932;28;1321;-68
2021/12/31 00:20:47;;;;;;;4.45;2.70;;;;;;;13.88;79.95;100197.88;341132;28;1067;-68
2021/12/31 00:20:59;;;;;;;4.72;2.72;;;;;;;13.83;80.05;100203.28;340892;29;1862;-68
2021/12/31 00:21:11;;;;;;;4.00;2.50;;;;;;;13.83;80.18;100199.84;341094;28;1203;-68
2021/12/31 00:21:23;;;;;;;4.07;2.47;;;;;;;13.83;80.02;100198.06;342309;28;1194;-68
2021/12/31 00:21:36;;;;;;;3.78;2.50;;;;;;;13.81;80.09;100201.66;341279;28;2534;-68
2021/12/31 00:21:51;;;;;;;4.07;2.50;;;;;;;13.84;80.04;100199.75;342210;28;1869;-68
2021/12/31 00:22:19;;;;;;;4.93;2.55;;;;;;;13.82;80.42;100204.19;341688;28;1925;-68
2021/12/31 00:23:11;;;;;;;3.85;2.53;;;;;;;13.77;80.17;100200.91;345078;28;1093;-69
2021/12/31 00:23:25;;;;;;;3.85;2.42;;;;;;;13.81;80.26;100196.44;343918;28;1050;-67
2021/12/31 00:23:38;;;;;;;4.65;2.42;;;;;;;13.77;80.49;100198.31;343852;28;1982;-70
2021/12/31 00:23:50;;;;;;;3.90;2.35;;;;;;;13.76;80.39;100201.81;343600;28;2298;-69
2021/12/31 00:24:03;;;;;;;3.67;2.40;;;;;;;13.78;80.37;100202.59;343721;28;1278;-67
2021/12/31 00:24:15;;;;;;;4.55;2.30;;;;;;;13.77;80.48;100201.75;343626;28;1201;-68
2021/12/31 00:24:27;;;;;;;5.05;2.33;;;;;;;13.77;80.56;100201.75;343402;28;1086;-68
2021/12/31 00:24:39;;;;;;;5.05;2.20;;;;;;;13.78;80.38;100200.88;344459;28;1771;-68
2021/12/31 00:24:52;;;;;;;3.25;2.10;;;;;;;13.85;80.46;100198.03;344952;28;1240;-68
2021/12/31 00:25:04;;;;;;;3.63;2.17;;;;;;;13.87;80.13;100202.28;342911;28;1899;-68
2021/12/31 00:25:18;;;;;;;4.00;2.22;;;;;;;13.86;80.24;100199.72;344714;28;1528;-69
2021/12/31 00:25:32;;;;;;;3.92;2.30;;;;;;;13.81;80.19;100202.50;344162;28;1420;-67
2021/12/31 00:25:44;;;;;;;3.75;2.17;;;;;;;13.83;80.13;100199.84;342573;28;2304;-67
2021/12/31 00:25:56;;;;;;;3.90;2.10;;;;;;;13.77;80.30;100193.06;343721;28;1493;-68
2021/12/31 00:26:09;;;;;;;4.60;2.25;;;;;;;13.76;80.70;100199.19;342729;28;1186;-68
2021/12/31 00:26:20;;;;;;;4.13;2.20;;;;;;;13.77;80.54;100196.53;342379;28;1141;-68
2021/12/31 00:26:33;;;;;;;3.45;2.20;;;;;;;13.74;80.40;100203.63;342700;28;1275;-68
2021/12/31 00:26:45;;;;;;;3.47;2.28;;;;;;;13.77;80.55;100200.91;342253;28;1819;-69
2021/12/31 00:26:57;;;;;;;3.70;2.20;;;;;;;13.81;80.30;100201.66;342435;28;1284;-68
2021/12/31 00:27:09;;;;;;;2.93;2.03;;;;;;;13.77;80.45;100201.75;345063;28;1428;-68
2021/12/31 00:27:21;;;;;;;4.70;2.20;;;;;;;13.81;80.38;100197.28;345077;28;1034;-68
2021/12/31 00:27:33;;;;;;;5.30;2.15;;;;;;;13.79;80.38;100202.56;345056;28;1014;-68
2021/12/31 00:27:45;;;;;;;4.97;2.22;;;;;;;13.83;80.29;100198.06;343601;28;2337;-68
2021/12/31 00:27:58;;;;;;;4.22;2.40;;;;;;;13.82;80.21;100204.19;344811;28;1707;-67
2021/12/31 00:28:11;;;;;;;4.15;2.47;;;;;;;13.80;80.33;100200.78;343928;28;1071;-67
2021/12/31 00:28:23;;;;;;;3.85;2.35;;;;;;;13.78;80.39;100202.59;344062;28;1910;-68
2021/12/31 00:28:35;;;;;;;3.50;2.30;;;;;;;13.73;80.58;100199.31;340699;28;3520;-67
2021/12/31 00:28:47;;;;;;;4.30;2.40;;;;;;;13.77;80.49;100203.53;342407;28;3480;-67
2021/12/31 00:28:59;;;;;;;4.60;2.50;;;;;;;13.76;80.40;100204.41;342861;28;1367;-67
2021/12/31 00:29:11;;;;;;;5.60;2.45;;;;;;;13.80;80.41;100206.00;344496;28;5647;-67
2021/12/31 00:29:23;;;;;;;5.57;2.30;;;;;;;13.74;80.44;100195.78;346131;28;1044;-67
2021/12/31 00:29:35;;;;;;;5.05;2.35;;;;;;;13.71;80.62;100201.13;346095;28;1180;-67
2021/12/31 00:29:47;;;;;;;4.75;2.45;;;;;;;13.73;80.51;100202.78;346110;28;1062;-67
2021/12/31 00:29:59;;;;;;;5.55;2.60;;;;;;;13.78;80.54;100197.38;345528;28;1653;-67
2021/12/31 00:30:12;;;;;;;5.20;2.33;;;;;;;13.74;80.63;100201.88;345013;28;1079;-68
2021/12/31 00:30:24;;;;;;;4.30;2.33;;;;;;;13.76;80.57;100207.91;345113;28;981;-67
2021/12/31 00:30:37;;;;;;;3.20;2.25;;;;;;;13.72;80.67;100198.47;343571;28;5105;-67
2021/12/31 00:30:53;;;;;;;5.18;2.30;;;;;;;13.77;80.43;100201.75;344180;28;2675;-67
2021/12/31 00:31:05;;;;;;;5.55;2.45;;;;;;;13.66;80.85;100200.44;344775;28;2010;-68
2021/12/31 00:31:17;;;;;;;4.03;2.28;;;;;;;13.69;80.92;100202.97;344137;28;1062;-68
2021/12/31 00:31:29;;;;;;;4.20;2.38;;;;;;;13.66;80.83;100197.84;343690;28;1270;-67
2021/12/31 00:31:41;;;;;;;3.95;2.25;;;;;;;13.71;81.23;100193.31;342784;28;3004;-67
2021/12/31 00:31:54;;;;;;;3.83;2.40;;;;;;;13.76;80.72;100200.06;343324;28;1696;-67
2021/12/31 00:32:06;;;;;;;4.03;2.40;;;;;;;13.72;80.75;100202.81;346347;28;1117;-67
2021/12/31 00:32:18;;;;;;;3.70;2.33;;;;;;;13.73;80.58;100197.56;346116;28;1064;-67
2021/12/31 00:32:30;;;;;;;3.97;2.30;;;;;;;13.77;80.86;100191.31;346126;28;1302;-67
2021/12/31 00:32:42;;;;;;;3.83;2.38;;;;;;;13.82;80.42;100198.97;346023;28;1110;-67
2021/12/31 00:32:54;;;;;;;3.20;2.22;;;;;;;13.80;80.35;100195.56;345966;28;1106;-67
2021/12/31 00:33:08;;;;;;;4.20;2.50;;;;;;;13.82;80.11;100201.56;346121;28;1280;-67
2021/12/31 00:33:21;;;;;;;4.57;2.72;;;;;;;13.84;80.55;100202.38;346123;28;1090;-67
2021/12/31 00:33:33;;;;;;;4.63;2.60;;;;;;;13.84;80.21;100197.16;347340;28;1487;-68
2021/12/31 00:33:45;;;;;;;4.60;2.42;;;;;;;13.81;80.11;100199.03;347515;28;1157;-67
2021/12/31 00:33:57;;;;;;;3.88;2.22;;;;;;;13.84;80.30;100198.91;347115;28;1754;-67
2021/12/31 00:34:09;;;;;;;3.85;2.33;;;;;;;13.73;80.55;100188.88;344932;28;1042;-67
2021/12/31 00:34:21;;;;;;;4.78;2.38;;;;;;;13.72;80.78;100192.38;343667;28;1034;-67
2021/12/31 00:34:34;;;;;;;4.95;2.55;;;;;;;13.78;80.61;100202.59;343043;28;2500;-67
2021/12/31 00:34:46;;;;;;;4.55;2.50;;;;;;;13.79;80.36;100196.47;342070;28;1233;-67
2021/12/31 00:34:58;;;;;;;4.65;2.60;;;;;;;13.82;80.32;100192.91;342307;28;1099;-68
2021/12/31 00:35:10;;;;;;;3.97;2.45;;;;;;;13.76;80.78;100196.59;341723;28;1087;-67
2021/12/31 00:35:23;;;;;;;4.47;2.55;;;;;;;13.77;80.48;100196.53;342539;28;1071;-68
2021/12/31 00:35:37;;;;;;;5.20;2.40;;;;;;;13.73;80.62;100194.94;343335;28;1854;-68
2021/12/31 00:35:49;;;;;;;4.05;2.10;;;;;;;13.76;80.77;100193.97;342910;28;2369;-70
2021/12/31 00:36:01;;;;;;;4.55;2.25;;;;;;;13.82;80.49;100198.97;343556;28;1652;-69
2021/12/31 00:36:13;;;;;;;3.97;2.30;;;;;;;13.81;80.41;100202.50;343710;28;1717;-69
2021/12/31 00:36:42;;;;;;;4.35;2.55;;;;;;;13.73;80.79;100194.94;343787;28;1254;-67
2021/12/31 00:36:54;;;;;;;4.57;2.50;;;;;;;13.74;80.92;100201.00;343721;28;1288;-67
2021/12/31 00:37:06;;;;;;;4.00;2.25;;;;;;;13.77;80.68;100196.53;343590;28;1069;-67
2021/12/31 00:37:26;;;;;;;4.25;2.30;;;;;;;13.72;80.67;100192.38;342270;28;2463;-68
2021/12/31 00:37:39;;;;;;;3.80;2.42;;;;;;;13.72;80.79;100195.00;342494;28;1984;-68
2021/12/31 00:37:51;;;;;;;3.03;2.25;;;;;;;13.75;80.89;100203.56;342938;28;2039;-69
2021/12/31 00:38:03;;;;;;;3.97;2.90;;;;;;;13.77;80.83;100203.53;343625;28;1725;-67
2021/12/31 00:38:15;;;;;;;4.13;2.90;;;;;;;13.76;80.60;100193.97;343873;28;1161;-67
2021/12/31 00:38:27;;;;;;;3.80;2.40;;;;;;;13.75;80.54;100197.50;343624;28;1095;-67
2021/12/31 00:38:39;;;;;;;4.40;2.60;;;;;;;13.80;80.69;100200.78;343566;28;1110;-67
2021/12/31 00:38:51;;;;;;;4.55;2.60;;;;;;;13.83;80.47;100200.69;343583;28;1393;-67
2021/12/31 00:39:03;;;;;;;6.03;2.63;;;;;;;13.75;80.62;100197.50;343258;28;1644;-67
2021/12/31 00:39:15;;;;;;;6.32;2.60;;;;;;;13.80;80.90;100200.78;343403;28;918;-67
2021/12/31 00:39:27;;;;;;;3.90;2.33;;;;;;;13.78;80.63;100197.38;343594;28;1071;-67
2021/12/31 00:39:43;;;;;;;4.70;2.50;;;;;;;13.77;80.69;100200.91;343644;28;1063;-67
2021/12/31 00:39:56;;;;;;;4.70;2.55;;;;;;;13.78;80.76;100197.38;343598;28;1187;-67
2021/12/31 00:40:10;;;;;;;4.43;2.50;;;;;;;13.81;80.69;100197.28;342427;28;1091;-67
2021/12/31 00:40:22;;;;;;;3.08;2.33;;;;;;;13.78;80.81;100202.59;342226;28;1055;-67
2021/12/31 00:40:35;;;;;;;3.70;2.50;;;;;;;13.86;80.52;100200.56;342539;28;1912;-67
2021/12/31 00:40:47;;;;;;;4.93;2.55;;;;;;;13.90;80.18;100196.91;343299;28;2688;-70
2021/12/31 00:40:59;;;;;;;4.50;2.38;;;;;;;13.83;80.53;100203.28;342786;28;2477;-67
2021/12/31 00:41:11;;;;;;;5.18;2.50;;;;;;;13.78;80.81;100200.00;343604;28;1200;-67
2021/12/31 00:41:23;;;;;;;6.38;2.58;;;;;;;13.78;80.93;100200.88;343392;28;1074;-69
2021/12/31 00:41:35;;;;;;;6.32;2.70;;;;;;;13.75;80.79;100202.72;343458;28;1071;-68
2021/12/31 00:41:47;;;;;;;4.68;2.70;;;;;;;13.74;80.88;100201.00;343667;28;1070;-69
2021/12/31 00:41:59;;;;;;;5.07;2.70;;;;;;;13.76;80.75;100207.03;342414;28;1781;-68
2021/12/31 00:42:11;;;;;;;5.20;2.70;;;;;;;13.74;80.97;100206.25;343458;28;1064;-68
2021/12/31 00:42:24;;;;;;;3.78;2.55;;;;;;;13.72;80.79;100202.81;343296;28;1287;-67
2021/12/31 00:42:37;;;;;;;4.75;2.58;;;;;;;13.65;81.23;100206.59;343459;28;1306;-67
2021/12/31 00:42:49;;;;;;;5.47;2.70;;;;;;;13.64;81.30;100208.31;343319;28;1698;-69
2021/12/31 00:43:02;;;;;;;5.55;2.70;;;;;;;13.66;81.34;100203.94;342688;28;1665;-68
2021/12/31 00:43:14;;;;;;;5.05;2.38;;;;;;;13.59;81.49;100208.50;344764;28;1026;-68
2021/12/31 00:43:26;;;;;;;5.15;2.35;;;;;;;13.62;81.42;100202.31;344771;28;1138;-67
2021/12/31 00:43:38;;;;;;;5.03;2.53;;;;;;;13.59;81.66;100208.50;344891;28;1158;-68
2021/12/31 00:43:50;;;;;;;5.03;2.70;;;;;;;13.68;81.35;100199.50;343958;28;2168;-71
2021/12/31 00:44:02;;;;;;;5.82;2.60;;;;;;;13.71;81.25;100201.13;344721;28;1506;-69
2021/12/31 00:44:14;;;;;;;5.57;2.55;;;;;;;13.69;81.01;100200.34;344740;28;1062;-67
2021/12/31 00:44:26;;;;;;;4.50;2.50;;;;;;;13.75;81.15;100202.72;344978;28;1884;-67
2021/12/31 00:44:38;;;;;;;4.78;2.53;;;;;;;13.78;81.02;100202.59;346184;28;1100;-67
2021/12/31 00:44:51;;;;;;;5.63;2.80;;;;;;;13.73;81.32;100201.94;346133;28;1224;-67
2021/12/31 00:45:06;;;;;;;5.20;2.80;;;;;;;13.73;81.17;100199.31;345990;28;1619;-67
2021/12/31 00:45:21;;;;;;;5.28;2.65;;;;;;;13.72;81.20;100202.81;344230;28;1287;-67
2021/12/31 00:45:37;;;;;;;4.55;2.60;;;;;;;13.72;81.06;100193.25;343303;28;1028;-68
2021/12/31 00:45:49;;;;;;;4.68;2.58;;;;;;;13.72;81.04;100202.81;343691;28;1041;-67
2021/12/31 00:46:02;;;;;;;4.50;2.60;;;;;;;13.70;81.04;100194.19;343252;28;1976;-68
2021/12/31 00:46:14;;;;;;;4.50;2.70;;;;;;;13.75;81.16;100203.56;343455;28;1233;-67
2021/12/31 00:46:32;;;;;;;4.35;2.80;;;;;;;13.79;80.73;100199.94;343295;28;1235;-68
2021/12/31 00:46:44;;;;;;;3.70;2.63;;;;;;;13.74;81.00;100198.41;342758;28;4050;-70
2021/12/31 00:46:56;;;;;;;3.55;2.47;;;;;;;13.77;81.10;100201.75;343295;28;2027;-68
2021/12/31 00:47:08;;;;;;;4.43;2.55;;;;;;;13.78;80.75;100205.22;343634;28;1066;-67
2021/12/31 00:47:21;;;;;;;5.43;2.60;;;;;;;13.78;80.80;100197.38;342298;28;2004;-67
2021/12/31 00:47:37;;;;;;;5.68;2.72;;;;;;;13.75;81.03;100202.72;342255;28;1033;-67
2021/12/31 00:47:50;;;;;;;6.22;2.95;;;;;;;13.75;81.17;100192.28;342251;28;1294;-67
2021/12/31 00:48:03;;;;;;;6.22;3.20;;;;;;;13.80;80.86;100200.78;343139;28;1646;-68
2021/12/31 00:48:15;;;;;;;5.03;3.30;;;;;;;13.80;80.93;100200.78;342780;28;1838;-67
2021/12/31 00:48:27;;;;;;;5.13;3.10;;;;;;;13.81;80.93;100196.44;342404;28;1245;-68
2021/12/31 00:48:39;;;;;;;5.28;3.10;;;;;;;13.74;81.08;100195.78;342208;28;1142;-68
2021/12/31 00:48:51;;;;;;;5.45;3.20;;;;;;;13.69;81.33;100197.72;342185;28;1147;-68
2021/12/31 00:49:03;;;;;;;4.80;3.13;;;;;;;13.77;81.00;100195.69;343521;28;1953;-67
2021/12/31 00:49:16;;;;;;;4.72;3.00;;;;;;;13.77;81.13;100201.75;343878;28;1054;-69
2021/12/31 00:49:27;;;;;;;5.47;2.80;;;;;;;13.81;80.99;100197.28;343940;28;1033;-68
2021/12/31 00:49:40;;;;;;;5.32;2.95;;;;;;;13.77;80.90;100196.53;343520;28;1070;-69
2021/12/31 00:49:52;;;;;;;5.25;3.00;;;;;;;13.76;80.92;100196.59;343703;28;1221;-68
2021/12/31 00:50:05;;;;;;;4.85;2.70;;;;;;;13.73;81.16;100199.31;343747;28;1594;-68
2021/12/31 00:50:18;;;;;;;4.65;2.42;;;;;;;13.79;81.05;100199.94;343851;28;2004;-69
2021/12/31 00:50:30;;;;;;;4.97;2.47;;;;;;;13.75;81.35;100197.50;343846;28;1285;-70
2021/12/31 00:50:42;;;;;;;3.95;2.47;;;;;;;13.73;81.17;100199.31;343768;28;1046;-70
2021/12/31 00:50:54;;;;;;;5.00;2.65;;;;;;;13.76;81.16;100199.19;343589;28;1134;-69
2021/12/31 00:51:06;;;;;;;5.82;2.80;;;;;;;13.62;81.65;100196.25;343800;28;1169;-68
2021/12/31 00:51:18;;;;;;;5.45;2.80;;;;;;;13.65;81.49;100201.38;343463;28;1158;-69
2021/12/31 00:51:30;;;;;;;5.75;2.70;;;;;;;13.75;81.31;100203.56;343405;28;1169;-68
2021/12/31 00:51:42;;;;;;;4.55;2.70;;;;;;;13.73;81.46;100199.31;343673;28;1301;-69
2021/12/31 00:51:54;;;;;;;4.75;2.65;;;;;;;13.74;81.24;100195.78;342538;28;1979;-69
2021/12/31 00:52:07;;;;;;;5.05;2.80;;;;;;;13.72;81.42;100197.59;343791;28;1940;-68
2021/12/31 00:52:19;;;;;;;5.13;3.00;;;;;;;13.61;81.64;100202.38;345019;28;1035;-68
2021/12/31 00:52:31;;;;;;;5.30;3.28;;;;;;;13.63;81.70;100203.19;344384;28;1986;-68
2021/12/31 00:52:43;;;;;;;4.63;3.15;;;;;;;13.63;81.79;100195.34;343763;28;1066;-68
2021/12/31 00:52:55;;;;;;;4.68;2.88;;;;;;;13.56;82.12;100198.19;343661;28;1062;-68
2021/12/31 00:53:08;;;;;;;4.68;2.67;;;;;;;13.61;81.75;100192.78;342415;28;1156;-69
2021/12/31 00:53:20;;;;;;;5.53;3.00;;;;;;;13.61;81.84;100199.78;341912;28;1514;-71
2021/12/31 00:53:31;;;;;;;6.60;3.03;;;;;;;13.58;82.19;100204.19;342984;28;1571;-69
2021/12/31 00:53:46;;;;;;;6.07;2.75;;;;;;;13.51;82.08;100200.09;342349;28;1039;-68
2021/12/31 00:53:58;;;;;;;5.10;2.50;;;;;;;13.54;82.20;100205.22;346040;28;2065;-69
2021/12/31 00:54:10;;;;;;;4.03;2.60;;;;;;;13.57;81.96;100205.09;344931;28;1023;-68
2021/12/31 00:54:22;;;;;;;4.38;2.60;;;;;;;13.56;82.24;100200.78;344385;28;1047;-68
2021/12/31 00:54:35;;;;;;;4.90;2.70;;;;;;;13.62;82.10;100206.69;344810;28;1083;-70
2021/12/31 00:54:47;;;;;;;5.45;2.75;;;;;;;13.70;81.75;100199.41;344785;28;1150;-68
2021/12/31 00:54:59;;;;;;;5.25;2.70;;;;;;;13.72;81.49;100200.22;344662;28;1269;-69
2021/12/31 00:55:12;;;;;;;3.40;2.53;;;;;;;13.65;81.66;100198.75;344432;28;1033;-68
2021/12/31 00:55:24;;;;;;;3.33;2.75;;;;;;;13.65;81.78;100196.97;344766;28;1262;-68
2021/12/31 00:55:37;;;;;;;3.55;2.80;;;;;;;13.69;81.69;100197.72;344500;28;1168;-69
2021/12/31 00:55:49;;;;;;;4.60;2.70;;;;;;;13.65;81.49;100196.13;344731;28;1043;-69
2021/12/31 00:56:01;;;;;;;5.25;2.80;;;;;;;13.66;81.63;100195.22;343906;28;1284;-68
2021/12/31 00:56:13;;;;;;;5.15;2.80;;;;;;;13.67;81.57;100200.41;343518;28;1043;-69
2021/12/31 00:56:25;;;;;;;5.07;2.83;;;;;;;13.68;81.90;100201.25;344060;28;1137;-69
2021/12/31 00:56:38;;;;;;;5.47;2.90;;;;;;;13.66;81.81;100195.22;343213;28;1528;-68
2021/12/31 00:56:50;;;;;;;5.00;2.92;;;;;;;13.72;81.71;100193.25;342127;28;1169;-69
2021/12/31 00:57:05;;;;;;;4.50;2.65;;;;;;;13.70;81.42;100202.03;342624;28;1907;-69
2021/12/31 00:57:17;;;;;;;5.50;2.63;;;;;;;13.72;81.45;100202.81;342040;28;2273;-69
2021/12/31 00:57:29;;;;;;;4.88;2.65;;;;;;;13.70;81.69;100199.41;342207;28;1918;-70
2021/12/31 00:57:42;;;;;;;5.25;2.67;;;;;;;13.64;81.58;100194.41;342247;28;1730;-69
2021/12/31 00:57:54;;;;;;;6.22;2.85;;;;;;;13.65;81.74;100196.13;343714;28;1839;-68
2021/12/31 00:58:07;;;;;;;7.38;3.00;;;;;;;13.66;81.71;100197.84;344274;28;1926;-68
2021/12/31 00:58:19;;;;;;;8.23;2.92;;;;;;;13.67;81.69;100194.31;343690;28;2186;-70
2021/12/31 00:58:31;;;;;;;8.93;2.95;;;;;;;13.67;81.38;100194.31;343607;28;1344;-70
2021/12/31 00:58:43;;;;;;;6.65;2.85;;;;;;;13.65;81.79;100196.13;343697;28;1047;-70
2021/12/31 00:58:56;;;;;;;6.25;3.00;;;;;;;13.64;81.78;100195.25;343644;28;1306;-70
2021/12/31 00:59:08;;;;;;;5.57;2.90;;;;;;;13.67;81.87;100195.16;344875;28;1499;-69
2021/12/31 00:59:20;;;;;;;5.28;2.80;;;;;;;13.73;81.49;100194.94;344873;28;1094;-70
2021/12/31 00:59:33;;;;;;;4.50;2.50;;;;;;;13.75;81.46;100192.28;342923;28;2312;-69
2021/12/31 00:59:46;;;;;;;4.45;2.80;;;;;;;13.78;81.31;100200.00;345892;28;957;-70
2021/12/31 00:59:58;;;;;;;5.85;2.92;;;;;;;13.73;81.34;100194.94;345956;28;1677;-70
2021/12/31 01:00:13;;;;;;;5.68;2.90;;;;;;;13.77;81.33;100200.91;346004;28;2213;-71
2021/12/31 01:00:26;;;;;;;5.25;2.83;;;;;;;13.72;81.48;100197.59;344712;28;2172;-70
2021/12/31 01:00:38;;;;;;;4.13;2.70;;;;;;;13.69;81.53;100197.72;345503;28;2455;-70
2021/12/31 01:00:50;;;;;;;4.78;2.97;;;;;;;13.67;81.70;100195.16;345374;28;2155;-70